Time;durP1;ratioP1;P1;durP2;ratioP2;P2;SDS_P1;SDS_P2;PMS_P1;PMS_P2;Temp;Humidity;BMP_temperature;BMP_pressure;BME280_temperature;BME280_humidity;BME280_pressure;Samples;Min_cycle;Max_cycle;Signal;HPM_P1;HPM_P2
2024/01/24 00:02:19;;;;;;;9.75;2.63;;;12.00;99.90;;;;;;4986969;28;20049;-73
2024/01/24 00:04:45;;;;;;;10.20;2.60;;;12.00;99.90;;;;;;4984430;28;20477;-73
2024/01/24 00:07:11;;;;;;;6.63;2.58;;;11.90;99.90;;;;;;4994091;28;20056;-73
2024/01/24 00:09:37;;;;;;;9.63;3.13;;;11.90;99.90;;;;;;5001204;28;20081;-73
2024/01/24 00:12:03;;;;;;;9.18;2.60;;;11.80;99.90;;;;;;4984911;28;20125;-73
2024/01/24 00:14:28;;;;;;;6.38;2.28;;;11.90;99.90;;;;;;4996361;28;20144;-73
2024/01/24 00:20:35;;;;;;;7.85;2.40;;;11.90;99.90;;;;;;4944860;23;21984;-73
2024/01/24 00:23:01;;;;;;;10.68;2.70;;;11.90;99.90;;;;;;4646698;28;22244;-73
2024/01/24 00:25:27;;;;;;;5.40;2.20;;;11.80;99.90;;;;;;4653407;28;20886;-73
2024/01/24 00:27:53;;;;;;;12.32;3.05;;;11.80;99.90;;;;;;5059307;28;20042;-73
2024/01/24 00:30:18;;;;;;;9.50;2.38;;;11.80;99.90;;;;;;5033968;28;20064;-73
2024/01/24 00:32:44;;;;;;;9.38;2.85;;;11.90;99.90;;;;;;5034381;28;20411;-73
2024/01/24 00:35:10;;;;;;;7.80;2.28;;;11.80;99.90;;;;;;5026163;28;20044;-73
2024/01/24 00:37:35;;;;;;;12.75;2.35;;;11.80;99.90;;;;;;5051047;28;20047;-73
2024/01/24 00:40:03;;;;;;;12.70;3.03;;;11.80;99.90;;;;;;5031943;28;20072;-73
2024/01/24 00:42:28;;;;;;;9.65;2.88;;;11.80;99.90;;;;;;5041735;28;20051;-73
2024/01/24 00:44:55;;;;;;;9.18;2.40;;;11.80;99.90;;;;;;5031082;28;20025;-73
2024/01/24 00:47:24;;;;;;;8.43;2.55;;;11.80;99.90;;;;;;5057853;28;20170;-73
2024/01/24 00:49:50;;;;;;;15.23;3.05;;;11.80;99.90;;;;;;5045508;28;20037;-73
2024/01/24 00:52:15;;;;;;;9.98;2.83;;;11.80;99.90;;;;;;5044450;28;20071;-73
2024/01/24 00:54:41;;;;;;;10.35;2.60;;;11.80;99.90;;;;;;5043419;28;20041;-73
2024/01/24 00:57:07;;;;;;;10.35;3.28;;;11.80;99.90;;;;;;5033657;28;20169;-73
2024/01/24 00:59:33;;;;;;;6.20;2.00;;;11.80;99.90;;;;;;5021664;28;20420;-73
2024/01/24 01:01:59;;;;;;;11.07;2.60;;;11.80;99.90;;;;;;5042752;28;20025;-73
2024/01/24 01:04:25;;;;;;;14.75;2.72;;;11.80;99.90;;;;;;5058554;28;20700;-73
2024/01/24 01:06:50;;;;;;;10.45;2.80;;;11.80;99.90;;;;;;5044444;28;20047;-73
2024/01/24 01:09:19;;;;;;;8.98;2.60;;;11.80;99.90;;;;;;5061391;28;20587;-73
2024/01/24 01:11:45;;;;;;;9.25;2.25;;;11.90;99.90;;;;;;5020584;28;20181;-73
2024/01/24 01:14:11;;;;;;;7.55;2.30;;;11.80;99.90;;;;;;5033240;28;20503;-73
2024/01/24 01:16:36;;;;;;;8.90;2.22;;;11.80;99.90;;;;;;5034696;28;20400;-73
2024/01/24 01:19:02;;;;;;;11.35;2.10;;;11.80;99.90;;;;;;5037539;28;20131;-72
2024/01/24 01:21:28;;;;;;;12.00;2.22;;;11.70;99.90;;;;;;5059223;28;20399;-73
2024/01/24 01:23:54;;;;;;;9.30;2.22;;;11.80;99.90;;;;;;5041543;28;20056;-72
2024/01/24 01:26:20;;;;;;;7.20;2.55;;;12.00;99.90;;;;;;5038596;28;20083;-73
2024/01/24 01:28:46;;;;;;;9.82;2.60;;;12.00;99.90;;;;;;5033424;28;20132;-73
2024/01/24 01:31:11;;;;;;;8.60;1.70;;;12.00;99.90;;;;;;5036565;28;20127;-72
2024/01/24 01:33:37;;;;;;;7.38;1.70;;;12.00;99.90;;;;;;5013987;28;20071;-72
2024/01/24 01:36:03;;;;;;;4.03;1.10;;;12.10;99.90;;;;;;5044423;28;20041;-72
2024/01/24 01:38:29;;;;;;;5.00;1.90;;;12.20;99.90;;;;;;5037255;28;20051;-72
2024/01/24 01:40:55;;;;;;;6.15;1.90;;;12.20;99.90;;;;;;5061440;28;20098;-73
2024/01/24 01:43:20;;;;;;;11.38;2.33;;;12.20;99.90;;;;;;5043797;28;20039;-73
2024/01/24 01:45:47;;;;;;;6.90;1.67;;;12.20;99.90;;;;;;5044815;28;20098;-73
2024/01/24 01:48:14;;;;;;;7.05;1.85;;;12.20;99.90;;;;;;5036606;28;20083;-72
2024/01/24 01:50:40;;;;;;;4.88;1.90;;;12.30;99.90;;;;;;5019019;28;20083;-72
2024/01/24 01:53:07;;;;;;;6.97;1.50;;;12.20;99.90;;;;;;5028296;28;20242;-73
2024/01/24 01:55:35;;;;;;;7.53;1.80;;;12.20;99.90;;;;;;5043320;28;20506;-73
2024/01/24 01:58:01;;;;;;;5.97;1.55;;;12.30;99.90;;;;;;5051375;28;20040;-72
2024/01/24 02:00:28;;;;;;;8.32;2.10;;;12.30;99.90;;;;;;5028836;28;20121;-72
2024/01/24 02:02:54;;;;;;;7.05;1.80;;;12.20;99.90;;;;;;5038526;28;20039;-73
2024/01/24 02:05:19;;;;;;;3.90;1.60;;;12.30;99.90;;;;;;5042397;28;20403;-73
2024/01/24 02:07:46;;;;;;;6.15;1.88;;;12.30;99.90;;;;;;5016251;28;20407;-72
2024/01/24 02:10:12;;;;;;;5.28;1.50;;;12.30;99.90;;;;;;5021182;28;20090;-72
2024/01/24 02:12:38;;;;;;;7.85;1.73;;;12.30;99.90;;;;;;5042311;28;20040;-73
2024/01/24 02:15:06;;;;;;;7.30;1.88;;;12.30;99.90;;;;;;5016003;28;20321;-72
2024/01/24 02:17:32;;;;;;;7.75;1.75;;;12.30;99.90;;;;;;5034631;28;20440;-73
2024/01/24 02:19:57;;;;;;;5.85;1.98;;;12.20;99.90;;;;;;5034694;28;20036;-73
2024/01/24 02:22:23;;;;;;;6.82;2.00;;;12.20;99.90;;;;;;5039265;28;20490;-73
2024/01/24 02:24:49;;;;;;;10.48;2.20;;;12.10;99.90;;;;;;5053932;28;20345;-72
2024/01/24 02:27:15;;;;;;;8.32;1.67;;;12.20;99.90;;;;;;5031600;28;20068;-72
2024/01/24 02:29:40;;;;;;;6.03;1.60;;;12.20;99.90;;;;;;5045719;28;20049;-72
2024/01/24 02:32:06;;;;;;;5.70;1.73;;;12.10;99.90;;;;;;5025319;28;20130;-73
2024/01/24 02:34:32;;;;;;;12.18;2.15;;;12.10;99.90;;;;;;5046726;28;20396;-73
2024/01/24 02:36:58;;;;;;;7.68;1.70;;;12.10;99.90;;;;;;5031317;28;20448;-73
2024/01/24 02:39:24;;;;;;;5.93;1.83;;;12.00;99.90;;;;;;5038447;28;20539;-72
2024/01/24 02:41:50;;;;;;;7.70;1.85;;;12.00;99.90;;;;;;5042817;28;20197;-73
2024/01/24 02:44:16;;;;;;;4.82;1.63;;;12.00;99.90;;;;;;5034470;28;20039;-73
2024/01/24 02:46:41;;;;;;;7.72;1.95;;;12.00;99.90;;;;;;5027147;28;20412;-73
2024/01/24 02:49:07;;;;;;;6.40;2.22;;;12.00;99.90;;;;;;5039653;28;20433;-73
2024/01/24 02:51:33;;;;;;;11.57;1.77;;;12.00;99.90;;;;;;5028466;28;20075;-73
2024/01/24 02:53:59;;;;;;;9.40;2.00;;;12.00;99.90;;;;;;5058724;28;20055;-72
2024/01/24 02:56:24;;;;;;;12.40;2.40;;;11.90;99.90;;;;;;5041893;28;20040;-73
2024/01/24 02:58:50;;;;;;;7.47;2.50;;;11.90;99.90;;;;;;5030885;28;20138;-72
2024/01/24 03:01:16;;;;;;;11.75;2.72;;;11.80;99.90;;;;;;5039117;28;20048;-72
2024/01/24 03:03:45;;;;;;;8.30;2.10;;;11.80;99.90;;;;;;5038369;28;20073;-72
2024/01/24 03:06:11;;;;;;;11.77;2.70;;;11.80;99.90;;;;;;5034820;28;20379;-73
2024/01/24 03:08:51;;;;;;;9.18;2.55;;;11.70;99.90;;;;;;5039485;28;20048;-73
2024/01/24 03:11:17;;;;;;;11.85;2.50;;;11.80;99.90;;;;;;5042179;28;20522;-73
2024/01/24 03:13:43;;;;;;;13.95;3.33;;;11.60;99.90;;;;;;5041931;28;20382;-73
2024/01/24 03:16:09;;;;;;;12.35;2.75;;;11.60;99.90;;;;;;5041370;28;20039;-72
2024/01/24 03:18:37;;;;;;;16.45;2.60;;;11.60;99.90;;;;;;5027973;28;20470;-73
2024/01/24 03:21:07;;;;;;;13.52;2.97;;;11.50;99.90;;;;;;5020210;28;20055;-73
2024/01/24 03:23:33;;;;;;;13.70;3.35;;;11.50;99.90;;;;;;5041201;28;20100;-73
2024/01/24 03:25:59;;;;;;;18.30;3.20;;;11.50;99.90;;;;;;5044855;28;20048;-73
2024/01/24 03:28:25;;;;;;;12.65;3.25;;;11.50;99.90;;;;;;5041429;28;20041;-72
2024/01/24 03:30:52;;;;;;;12.85;3.13;;;11.40;99.90;;;;;;5025321;28;20029;-73
2024/01/24 03:33:17;;;;;;;15.60;3.63;;;11.40;99.90;;;;;;5036671;28;20144;-72
2024/01/24 03:35:43;;;;;;;15.93;3.88;;;11.30;99.90;;;;;;5034783;28;20367;-72
2024/01/24 03:38:09;;;;;;;14.32;3.75;;;11.30;99.90;;;;;;5044190;28;20067;-73
2024/01/24 03:40:35;;;;;;;15.68;3.42;;;11.20;99.90;;;;;;5047167;28;20480;-73
2024/01/24 03:43:00;;;;;;;16.50;3.45;;;11.30;99.90;;;;;;5042272;28;20037;-73
2024/01/24 03:45:26;;;;;;;17.33;3.22;;;11.30;99.90;;;;;;5047722;28;20119;-73
2024/01/24 03:47:52;;;;;;;14.30;3.53;;;11.30;99.90;;;;;;5026836;28;20037;-73
2024/01/24 03:50:18;;;;;;;14.25;3.40;;;11.40;99.90;;;;;;5062321;28;20560;-73
2024/01/24 03:52:44;;;;;;;16.83;3.80;;;11.30;99.90;;;;;;5036014;28;20365;-73
2024/01/24 03:55:09;;;;;;;16.60;4.18;;;11.30;99.90;;;;;;5063961;28;20071;-73
2024/01/24 03:57:35;;;;;;;17.35;3.58;;;11.30;99.90;;;;;;5044322;28;20045;-73
2024/01/24 04:00:01;;;;;;;17.75;4.18;;;11.30;99.90;;;;;;5029117;28;20484;-72
2024/01/24 04:02:27;;;;;;;14.23;3.47;;;11.30;99.90;;;;;;5037807;28;20028;-73
2024/01/24 04:04:53;;;;;;;15.43;3.17;;;11.30;99.90;;;;;;5030510;28;20087;-73
2024/01/24 04:07:18;;;;;;;17.13;3.30;;;11.20;99.90;;;;;;5045765;28;20044;-73
2024/01/24 04:09:44;;;;;;;15.20;2.80;;;11.30;99.90;;;;;;5045795;28;20072;-73
2024/01/24 04:12:10;;;;;;;11.35;3.17;;;11.40;99.90;;;;;;5046795;28;20040;-73
2024/01/24 04:14:36;;;;;;;16.35;3.35;;;11.30;99.90;;;;;;5035040;28;20565;-73
2024/01/24 04:17:02;;;;;;;17.13;3.55;;;11.30;99.90;;;;;;5033968;28;20064;-72
2024/01/24 04:19:29;;;;;;;22.67;4.65;;;11.40;99.90;;;;;;5041108;28;20309;-72
2024/01/24 04:21:55;;;;;;;18.48;3.60;;;11.30;99.90;;;;;;5044234;28;20507;-73
2024/01/24 04:24:21;;;;;;;16.83;3.72;;;11.20;99.90;;;;;;5043922;28;20048;-72
2024/01/24 04:26:47;;;;;;;23.58;4.60;;;11.20;99.90;;;;;;5045558;28;20053;-72
2024/01/24 04:29:13;;;;;;;20.00;4.30;;;11.10;99.90;;;;;;5062064;28;20041;-72
2024/01/24 04:31:38;;;;;;;14.25;3.72;;;10.80;99.90;;;;;;5045886;28;20111;-72
2024/01/24 04:34:04;;;;;;;17.40;4.05;;;10.70;99.90;;;;;;5044641;28;20052;-73
2024/01/24 04:36:30;;;;;;;25.92;4.30;;;10.70;99.90;;;;;;5044809;28;20045;-72
2024/01/24 04:38:56;;;;;;;23.65;4.22;;;10.50;99.90;;;;;;5027501;28;20036;-72
2024/01/24 04:41:22;;;;;;;24.63;4.30;;;10.60;99.90;;;;;;5044074;28;20486;-73
2024/01/24 04:43:48;;;;;;;19.35;4.85;;;10.60;99.90;;;;;;5045656;28;20048;-72
2024/01/24 04:46:15;;;;;;;18.98;3.97;;;10.70;99.90;;;;;;5033978;28;20418;-73
2024/01/24 04:48:43;;;;;;;26.45;4.55;;;10.60;99.90;;;;;;5046083;28;20044;-72
2024/01/24 04:51:08;;;;;;;24.17;4.95;;;10.50;99.90;;;;;;5047160;28;20041;-73
2024/01/24 04:53:35;;;;;;;23.08;4.95;;;10.50;99.90;;;;;;5045564;28;20047;-72
2024/01/24 04:56:01;;;;;;;28.10;5.88;;;10.50;99.90;;;;;;5047465;28;20080;-72
2024/01/24 04:58:27;;;;;;;23.48;5.20;;;10.50;99.90;;;;;;5047045;28;20507;-72
2024/01/24 05:00:53;;;;;;;18.95;4.72;;;10.50;99.90;;;;;;5042060;28;20044;-72
2024/01/24 05:03:19;;;;;;;30.40;5.60;;;10.50;99.90;;;;;;5044449;28;20047;-73
2024/01/24 05:05:44;;;;;;;28.80;5.13;;;10.50;99.90;;;;;;5031381;28;20075;-72
2024/01/24 05:08:10;;;;;;;22.20;4.55;;;10.50;99.90;;;;;;5027201;28;20456;-72
2024/01/24 05:10:36;;;;;;;22.20;5.38;;;10.40;99.90;;;;;;5029986;28;20043;-73
2024/01/24 05:13:02;;;;;;;28.02;5.07;;;10.40;99.90;;;;;;5030571;28;20036;-72
2024/01/24 05:15:28;;;;;;;26.98;5.70;;;10.40;99.90;;;;;;5044097;28;20059;-72
2024/01/24 05:17:53;;;;;;;27.75;5.32;;;10.50;99.90;;;;;;5043113;28;20040;-72
2024/01/24 05:20:19;;;;;;;26.88;5.53;;;10.60;99.90;;;;;;5049969;28;20036;-72
2024/01/24 05:22:47;;;;;;;22.58;5.40;;;10.60;99.90;;;;;;5044384;28;20151;-72
2024/01/24 05:25:13;;;;;;;21.58;5.63;;;10.60;99.90;;;;;;5050957;28;20060;-72
2024/01/24 05:27:38;;;;;;;25.40;5.32;;;10.60;99.90;;;;;;5060565;28;20053;-73
2024/01/24 05:30:05;;;;;;;23.08;5.35;;;10.60;99.90;;;;;;5044023;28;20040;-72
2024/01/24 05:32:31;;;;;;;22.70;4.82;;;10.60;99.90;;;;;;5045075;28;20168;-72
2024/01/24 05:34:57;;;;;;;16.98;5.13;;;10.60;99.90;;;;;;5044990;28;20500;-73
2024/01/24 05:37:23;;;;;;;25.08;6.18;;;10.60;99.90;;;;;;5042979;28;20194;-72
2024/01/24 05:39:49;;;;;;;28.02;5.97;;;10.70;99.90;;;;;;5059535;28;20037;-73
2024/01/24 05:42:15;;;;;;;30.08;6.20;;;10.70;99.90;;;;;;5041223;28;20045;-72
2024/01/24 05:44:40;;;;;;;26.70;5.72;;;10.70;99.90;;;;;;5045492;28;20064;-72
2024/01/24 05:47:06;;;;;;;30.70;5.82;;;10.70;99.90;;;;;;5043454;28;20049;-73
2024/01/24 05:49:38;;;;;;;31.40;6.38;;;10.70;99.90;;;;;;5041850;28;20036;-73
2024/01/24 05:52:05;;;;;;;29.77;6.60;;;10.70;99.90;;;;;;5027745;28;20036;-73
2024/01/24 05:54:31;;;;;;;26.23;6.38;;;10.60;99.90;;;;;;5049108;28;20055;-73
2024/01/24 05:56:57;;;;;;;24.63;5.07;;;10.70;99.90;;;;;;5060854;28;20033;-73
2024/01/24 05:59:23;;;;;;;29.25;6.00;;;10.70;99.90;;;;;;5044444;28;20036;-72
2024/01/24 06:01:50;;;;;;;29.48;5.47;;;10.70;99.90;;;;;;5043825;28;20090;-73
2024/01/24 06:04:16;;;;;;;28.30;5.75;;;10.80;99.90;;;;;;5041408;28;20476;-73
2024/01/24 06:06:42;;;;;;;27.98;5.68;;;10.70;99.90;;;;;;5040352;28;20067;-73
2024/01/24 06:09:08;;;;;;;34.95;6.45;;;10.70;99.90;;;;;;5037522;28;20051;-73
2024/01/24 06:11:34;;;;;;;26.25;5.68;;;10.70;99.90;;;;;;5043692;28;20040;-73
2024/01/24 06:14:00;;;;;;;32.92;6.32;;;10.70;99.90;;;;;;5022504;28;20040;-73
2024/01/24 06:16:26;;;;;;;26.52;5.05;;;10.70;99.90;;;;;;5041464;28;20097;-73
2024/01/24 06:18:52;;;;;;;27.38;5.13;;;10.70;99.90;;;;;;5023563;28;20056;-73
2024/01/24 06:21:17;;;;;;;33.50;6.63;;;10.70;99.90;;;;;;5024005;28;20123;-73
2024/01/24 06:23:43;;;;;;;26.05;6.15;;;10.70;99.90;;;;;;5037560;28;20028;-73
2024/01/24 06:26:09;;;;;;;28.33;6.28;;;10.60;99.90;;;;;;5027059;28;20794;-73
2024/01/24 06:28:36;;;;;;;35.70;6.15;;;10.60;99.90;;;;;;5042779;28;20474;-73
2024/01/24 06:31:02;;;;;;;29.25;6.47;;;10.50;99.90;;;;;;5040038;28;20397;-73
2024/01/24 06:33:28;;;;;;;30.58;5.85;;;10.50;99.90;;;;;;5041291;28;20045;-73
2024/01/24 06:35:54;;;;;;;31.10;6.93;;;10.40;99.90;;;;;;5042443;28;20041;-73
2024/01/24 06:38:20;;;;;;;28.73;6.05;;;10.40;99.90;;;;;;5041380;28;20530;-73
2024/01/24 06:40:45;;;;;;;36.35;6.15;;;10.40;99.90;;;;;;5057422;28;20056;-73
2024/01/24 06:43:14;;;;;;;26.75;6.45;;;10.40;99.90;;;;;;5042287;28;20111;-73
2024/01/24 06:45:40;;;;;;;26.35;5.78;;;10.40;99.90;;;;;;5039035;28;20110;-73
2024/01/24 06:48:07;;;;;;;30.08;5.68;;;10.30;99.90;;;;;;5024332;28;20036;-73
2024/01/24 06:50:33;;;;;;;26.92;5.95;;;10.40;99.90;;;;;;5041019;28;20037;-73
2024/01/24 06:52:59;;;;;;;22.83;5.25;;;10.50;99.90;;;;;;5038022;28;20410;-73
2024/01/24 06:55:24;;;;;;;21.13;5.70;;;10.50;99.90;;;;;;5024420;28;20035;-73
2024/01/24 06:57:50;;;;;;;24.88;6.07;;;10.60;99.90;;;;;;5036712;28;20368;-73
2024/01/24 07:00:18;;;;;;;20.45;4.63;;;10.50;99.90;;;;;;5042146;28;20051;-73
2024/01/24 07:02:44;;;;;;;25.52;5.40;;;10.30;99.90;;;;;;5037942;28;20052;-73
2024/01/24 07:05:10;;;;;;;26.33;5.18;;;10.40;99.90;;;;;;5057452;28;20040;-73
2024/01/24 07:07:37;;;;;;;28.30;6.75;;;10.50;99.90;;;;;;5039575;28;20046;-73
2024/01/24 07:10:03;;;;;;;26.75;5.03;;;10.50;99.90;;;;;;5022880;28;20394;-73
2024/01/24 07:12:30;;;;;;;24.83;5.82;;;10.50;99.90;;;;;;5057641;28;20325;-73
2024/01/24 07:14:56;;;;;;;31.15;6.40;;;10.50;99.90;;;;;;5042548;28;20071;-73
2024/01/24 07:17:23;;;;;;;28.80;6.22;;;10.50;99.90;;;;;;5038028;28;20044;-73
2024/01/24 07:19:50;;;;;;;28.30;6.30;;;10.60;99.90;;;;;;5039805;28;20045;-73
2024/01/24 07:22:16;;;;;;;32.15;6.10;;;10.50;99.90;;;;;;5053610;28;20116;-73
2024/01/24 07:24:44;;;;;;;27.70;6.05;;;10.50;99.90;;;;;;5025575;28;20032;-73
2024/01/24 07:27:10;;;;;;;27.83;6.28;;;10.40;99.90;;;;;;5043205;28;20061;-73
2024/01/24 07:29:35;;;;;;;29.48;5.70;;;10.40;99.90;;;;;;5058252;28;20036;-72
2024/01/24 07:32:03;;;;;;;27.65;5.70;;;10.40;99.90;;;;;;5041087;28;20415;-73
2024/01/24 07:34:29;;;;;;;24.98;6.30;;;10.40;99.90;;;;;;5039837;28;20381;-72
2024/01/24 07:36:54;;;;;;;29.80;6.18;;;10.40;99.90;;;;;;5039120;28;20046;-72
2024/01/24 07:39:20;;;;;;;30.33;6.88;;;10.20;99.90;;;;;;5041514;28;20040;-73
2024/01/24 07:41:46;;;;;;;28.48;6.53;;;10.20;99.90;;;;;;5038339;28;20411;-72
2024/01/24 07:44:12;;;;;;;27.92;6.43;;;10.10;99.90;;;;;;5040846;28;20036;-73
2024/01/24 07:46:43;;;;;;;37.28;7.18;;;10.00;99.90;;;;;;5043233;28;20044;-72
2024/01/24 07:49:11;;;;;;;34.70;6.55;;;10.10;99.90;;;;;;5060578;28;20044;-72
2024/01/24 07:51:37;;;;;;;32.60;7.53;;;10.10;99.90;;;;;;5039745;28;20127;-73
2024/01/24 07:54:04;;;;;;;26.92;6.78;;;10.10;99.90;;;;;;5024869;28;20067;-73
2024/01/24 07:56:30;;;;;;;32.25;6.70;;;10.10;99.90;;;;;;5042385;28;20037;-73
2024/01/24 07:58:55;;;;;;;25.58;5.93;;;10.10;99.90;;;;;;5041009;28;20040;-72
2024/01/24 08:01:21;;;;;;;30.48;6.88;;;10.20;99.90;;;;;;5048984;28;20033;-72
2024/01/24 08:03:47;;;;;;;27.98;6.53;;;10.20;99.90;;;;;;5055750;28;20036;-73
2024/01/24 08:06:13;;;;;;;30.25;6.85;;;10.20;99.90;;;;;;5045775;28;20496;-73
2024/01/24 08:08:38;;;;;;;30.95;6.50;;;10.20;99.90;;;;;;5040473;28;20271;-73
2024/01/24 08:11:04;;;;;;;21.65;5.38;;;10.20;99.90;;;;;;5044925;28;20137;-73
2024/01/24 08:13:32;;;;;;;24.38;6.45;;;10.30;99.90;;;;;;5058357;28;20040;-73
2024/01/24 08:15:57;;;;;;;23.85;5.63;;;10.30;99.90;;;;;;5028055;28;20045;-73
2024/01/24 08:18:24;;;;;;;25.30;6.25;;;10.30;99.90;;;;;;5056779;28;20035;-73
2024/01/24 08:20:52;;;;;;;24.45;6.55;;;10.30;99.90;;;;;;5026521;28;20043;-72
2024/01/24 08:23:18;;;;;;;34.35;6.15;;;10.20;99.90;;;;;;5043780;28;20193;-73
2024/01/24 08:25:44;;;;;;;33.50;7.05;;;10.20;99.90;;;;;;5062261;28;20084;-73
2024/01/24 08:28:10;;;;;;;33.08;6.35;;;10.30;99.90;;;;;;5044362;28;20149;-73
2024/01/24 08:30:36;;;;;;;28.00;5.53;;;10.30;99.90;;;;;;5045243;28;20078;-73
2024/01/24 08:33:02;;;;;;;22.42;5.78;;;10.30;99.90;;;;;;5026778;28;20040;-73
2024/01/24 08:35:28;;;;;;;24.35;5.90;;;10.30;99.90;;;;;;5045212;28;20028;-73
2024/01/24 08:37:54;;;;;;;31.85;6.30;;;10.30;99.90;;;;;;5041631;28;20048;-73
2024/01/24 08:40:21;;;;;;;25.52;5.97;;;10.30;99.90;;;;;;5044209;28;20518;-73
2024/01/24 08:42:47;;;;;;;24.90;6.43;;;10.30;99.90;;;;;;5028889;28;20048;-73
2024/01/24 08:45:13;;;;;;;33.00;6.50;;;10.30;99.90;;;;;;5044778;28;20046;-73
2024/01/24 08:47:39;;;;;;;28.67;6.30;;;10.20;99.90;;;;;;5043245;28;20139;-73
2024/01/24 08:50:05;;;;;;;27.35;6.18;;;10.30;99.90;;;;;;5059862;28;20463;-73
2024/01/24 08:52:31;;;;;;;30.90;6.05;;;10.30;99.90;;;;;;5059750;28;20288;-73
2024/01/24 08:54:58;;;;;;;32.22;6.88;;;10.30;99.90;;;;;;5045150;28;20697;-73
2024/01/24 08:57:24;;;;;;;23.25;5.15;;;10.20;99.90;;;;;;5027091;28;20040;-72
2024/01/24 08:59:51;;;;;;;23.73;5.50;;;10.20;99.90;;;;;;5045635;28;20078;-73
2024/01/24 09:02:17;;;;;;;30.08;5.70;;;10.30;99.90;;;;;;5043237;28;20184;-73
2024/01/24 09:04:42;;;;;;;32.05;6.93;;;10.20;99.90;;;;;;5061768;28;20047;-73
2024/01/24 09:07:08;;;;;;;24.73;5.60;;;10.10;99.90;;;;;;5042605;28;20048;-73
2024/01/24 09:09:35;;;;;;;28.00;6.43;;;10.20;99.90;;;;;;5039965;28;20124;-73
2024/01/24 09:12:00;;;;;;;28.25;6.82;;;10.20;99.90;;;;;;5028518;28;20040;-73
2024/01/24 09:14:26;;;;;;;33.45;8.13;;;10.10;99.90;;;;;;5028372;28;20396;-73
2024/01/24 09:16:52;;;;;;;27.55;6.70;;;10.10;99.90;;;;;;5045990;28;20048;-73
2024/01/24 09:19:18;;;;;;;37.63;6.95;;;10.10;99.90;;;;;;5059424;28;20036;-73
2024/01/24 09:21:44;;;;;;;37.72;7.90;;;10.10;99.90;;;;;;5042032;28;20082;-73
2024/01/24 09:24:09;;;;;;;27.98;6.30;;;10.20;99.90;;;;;;5043486;28;20040;-73
2024/01/24 09:26:36;;;;;;;26.55;6.65;;;10.20;99.90;;;;;;5030453;28;20068;-73
2024/01/24 09:29:02;;;;;;;30.65;6.68;;;10.30;99.90;;;;;;5044658;28;20048;-73
2024/01/24 09:31:29;;;;;;;29.90;6.45;;;10.30;99.90;;;;;;5046765;28;20056;-73
2024/01/24 09:33:55;;;;;;;23.60;5.30;;;10.40;99.90;;;;;;5030311;28;20390;-73
2024/01/24 09:36:23;;;;;;;21.55;5.60;;;10.40;99.90;;;;;;5046632;28;20114;-73
2024/01/24 09:38:49;;;;;;;22.90;5.43;;;10.50;99.90;;;;;;5027662;28;20558;-72
2024/01/24 09:41:19;;;;;;;29.30;5.90;;;10.40;99.90;;;;;;5059684;28;20098;-72
2024/01/24 09:43:49;;;;;;;22.70;5.72;;;10.40;99.90;;;;;;5043819;28;20053;-73
2024/01/24 09:46:18;;;;;;;28.83;6.13;;;10.40;99.90;;;;;;5031962;28;20151;-73
2024/01/24 09:48:45;;;;;;;31.52;6.65;;;10.40;99.90;;;;;;5043597;28;20036;-72
2024/01/24 09:51:15;;;;;;;32.25;6.60;;;10.50;99.90;;;;;;5046205;28;20791;-73
2024/01/24 09:53:45;;;;;;;33.55;6.65;;;10.50;99.90;;;;;;5044335;28;20042;-73
2024/01/24 09:56:13;;;;;;;26.85;5.97;;;10.40;99.90;;;;;;5047164;28;20128;-73
2024/01/24 09:58:39;;;;;;;30.85;6.60;;;10.40;99.90;;;;;;5028311;28;20055;-73
2024/01/24 10:01:08;;;;;;;34.22;6.22;;;10.40;99.90;;;;;;5028633;28;20040;-73
2024/01/24 10:03:34;;;;;;;28.17;5.80;;;10.50;99.90;;;;;;5058477;28;20373;-73
2024/01/24 10:06:00;;;;;;;28.40;6.47;;;10.40;99.90;;;;;;5043624;28;20044;-73
2024/01/24 10:08:27;;;;;;;20.00;5.00;;;10.60;99.90;;;;;;5044986;28;20044;-73
2024/01/24 10:10:53;;;;;;;21.13;5.55;;;10.60;99.90;;;;;;5044346;28;20137;-73
2024/01/24 10:13:18;;;;;;;25.60;5.45;;;10.60;99.90;;;;;;5029470;28;20498;-73
2024/01/24 10:15:44;;;;;;;24.90;5.18;;;10.60;99.90;;;;;;5059208;28;21111;-73
2024/01/24 10:18:10;;;;;;;18.05;5.15;;;10.60;99.90;;;;;;5028361;28;20060;-73
2024/01/24 10:20:36;;;;;;;20.27;5.22;;;10.70;99.90;;;;;;5044691;28;20060;-73
2024/01/24 10:23:01;;;;;;;29.92;5.55;;;10.70;99.90;;;;;;5043581;28;20354;-73
2024/01/24 10:25:27;;;;;;;25.15;4.63;;;10.60;99.90;;;;;;5061450;28;20044;-73
2024/01/24 10:27:54;;;;;;;25.90;6.13;;;10.70;99.90;;;;;;5049596;28;20488;-73
2024/01/24 10:30:22;;;;;;;23.83;4.80;;;10.60;99.90;;;;;;5063635;28;20885;-73
2024/01/24 10:32:48;;;;;;;20.13;4.72;;;10.70;99.90;;;;;;5061362;28;20101;-73
2024/01/24 10:35:14;;;;;;;24.05;5.68;;;10.70;99.90;;;;;;5042327;28;20060;-73
2024/01/24 10:37:44;;;;;;;19.88;4.05;;;10.70;99.90;;;;;;5043215;28;20056;-73
2024/01/24 10:40:14;;;;;;;25.48;5.53;;;10.70;99.90;;;;;;5060221;28;20036;-73
2024/01/24 10:42:44;;;;;;;22.80;4.93;;;10.70;99.90;;;;;;5045678;28;20469;-73
2024/01/24 10:45:10;;;;;;;28.23;5.60;;;10.70;99.90;;;;;;5043205;28;20040;-73
2024/01/24 10:47:36;;;;;;;28.42;5.45;;;10.80;99.90;;;;;;5044833;28;20044;-73
2024/01/24 10:50:06;;;;;;;21.65;4.30;;;10.80;99.90;;;;;;5033648;28;20062;-73
2024/01/24 10:52:35;;;;;;;20.02;5.00;;;10.80;99.90;;;;;;5058545;28;20102;-73
2024/01/24 10:55:05;;;;;;;25.98;4.82;;;10.80;99.90;;;;;;5042138;28;20233;-73
2024/01/24 10:57:33;;;;;;;24.85;4.72;;;10.80;99.90;;;;;;5042901;28;20115;-73
2024/01/24 11:00:01;;;;;;;22.58;4.75;;;10.70;99.90;;;;;;5061772;28;20071;-73
2024/01/24 11:02:27;;;;;;;22.20;4.78;;;10.80;99.90;;;;;;5024418;28;20120;-73
2024/01/24 11:04:54;;;;;;;21.25;5.35;;;10.70;99.90;;;;;;5044578;28;20524;-73
2024/01/24 11:07:29;;;;;;;20.67;5.60;;;10.70;99.90;;;;;;5026230;28;20514;-73
2024/01/24 11:10:16;;;;;;;24.58;5.45;;;10.60;99.90;;;;;;5046658;28;20071;-73
2024/01/24 11:12:42;;;;;;;21.17;5.55;;;10.60;99.90;;;;;;5043599;28;21214;-73
2024/01/24 11:15:13;;;;;;;18.13;4.55;;;10.70;99.90;;;;;;5051311;28;20468;-73
2024/01/24 11:17:41;;;;;;;20.02;5.38;;;10.70;99.90;;;;;;5025500;28;20035;-73
2024/01/24 11:20:09;;;;;;;22.70;4.63;;;10.80;99.90;;;;;;5061188;28;20102;-73
2024/01/24 11:22:36;;;;;;;23.50;5.55;;;10.70;99.90;;;;;;5043931;28;20036;-73
2024/01/24 11:25:04;;;;;;;20.40;4.95;;;10.70;99.90;;;;;;5042893;28;20487;-73
2024/01/24 11:27:33;;;;;;;23.15;4.93;;;10.60;99.90;;;;;;5032479;28;20081;-73
2024/01/24 11:30:00;;;;;;;26.10;5.38;;;10.70;99.90;;;;;;5051883;28;20427;-73
2024/01/24 11:32:44;;;;;;;24.75;5.25;;;10.70;99.90;;;;;;5042952;28;20048;-73
2024/01/24 11:35:40;;;;;;;27.05;5.18;;;10.70;99.90;;;;;;5043463;28;20044;-73
2024/01/24 11:38:27;;;;;;;25.67;5.93;;;10.70;92.70;;;;;;5042305;28;20458;-73
2024/01/24 11:41:12;;;;;;;22.90;4.82;;;10.70;98.10;;;;;;5058707;28;20039;-73
2024/01/24 11:43:44;;;;;;;20.15;4.90;;;10.60;42.50;;;;;;5042152;28;20427;-73
2024/01/24 11:46:11;;;;;;;28.50;5.43;;;10.60;1.00;;;;;;5045409;28;20055;-73
2024/01/24 11:48:37;;;;;;;22.95;4.07;;;10.60;32.70;;;;;;5058163;28;20496;-73
2024/01/24 11:51:09;;;;;;;21.77;4.50;;;10.60;1.00;;;;;;5047513;28;20039;-73
2024/01/24 11:53:35;;;;;;;20.23;4.95;;;10.60;7.60;;;;;;5057245;28;20048;-73
2024/01/24 11:56:03;;;;;;;20.95;6.30;;;10.60;9.30;;;;;;5045425;28;20106;-73
2024/01/24 11:58:33;;;;;;;27.23;6.18;;;10.70;17.60;;;;;;5045899;28;20045;-73
2024/01/24 12:01:07;;;;;;;23.48;5.10;;;10.80;1.00;;;;;;5053034;28;20506;-73
2024/01/24 12:03:33;;;;;;;24.05;5.20;;;10.80;1.00;;;;;;5045308;28;20068;-73
2024/01/24 12:06:00;;;;;;;26.70;5.72;;;10.80;1.00;;;;;;5047209;28;20086;-73
2024/01/24 12:08:26;;;;;;;25.25;5.28;;;10.80;1.00;;;;;;5045014;28;20063;-73
2024/01/24 12:10:52;;;;;;;26.90;5.55;;;10.80;1.00;;;;;;5049697;28;20044;-73
2024/01/24 12:13:20;;;;;;;21.33;4.50;;;10.90;1.00;;;;;;5063261;28;20486;-73
2024/01/24 12:15:46;;;;;;;20.73;4.93;;;10.70;1.00;;;;;;5048529;28;20136;-73
2024/01/24 12:18:14;;;;;;;24.85;5.45;;;10.70;1.00;;;;;;5043762;28;20033;-73
2024/01/24 12:20:48;;;;;;;27.13;5.93;;;10.70;1.00;;;;;;5049978;28;20063;-73
2024/01/24 12:23:15;;;;;;;30.30;6.28;;;10.80;1.00;;;;;;5043298;28;20403;-73
2024/01/24 12:25:41;;;;;;;30.98;6.22;;;10.70;1.00;;;;;;5049744;28;20060;-73
2024/01/24 12:28:07;;;;;;;25.25;5.28;;;10.80;99.90;;;;;;5030300;28;20601;-73
2024/01/24 12:30:34;;;;;;;25.02;5.97;;;10.80;99.90;;;;;;5032318;28;20104;-73
2024/01/24 12:33:04;;;;;;;25.13;5.82;;;10.80;99.90;;;;;;5043658;28;20272;-73
2024/01/24 12:35:31;;;;;;;22.13;6.15;;;11.00;99.90;;;;;;5043059;28;20475;-73
2024/01/24 12:38:02;;;;;;;21.50;4.63;;;10.90;99.90;;;;;;5049962;28;20104;-73
2024/01/24 12:40:29;;;;;;;24.70;5.00;;;10.90;99.90;;;;;;5044951;28;20403;-73